createdAt,value
2018-11-23T00:02:06.137Z,20.36
2018-11-23T00:04:33.105Z,20.36
2018-11-23T00:06:59.979Z,20.36
2018-11-23T00:09:26.873Z,20.37
2018-11-23T00:11:53.799Z,20.37
2018-11-23T00:14:20.672Z,20.37
2018-11-23T00:16:47.561Z,20.37
2018-11-23T00:19:14.436Z,20.39
2018-11-23T00:21:41.332Z,20.41
2018-11-23T00:24:08.217Z,20.41
2018-11-23T00:26:35.224Z,20.44
2018-11-23T00:29:02.074Z,20.43
2018-11-23T00:31:28.993Z,20.42
2018-11-23T00:33:55.894Z,20.44
2018-11-23T00:36:22.841Z,20.48
2018-11-23T00:38:49.747Z,20.51
2018-11-23T00:41:16.627Z,20.52
2018-11-23T00:43:43.502Z,20.50
2018-11-23T00:46:10.379Z,20.47
2018-11-23T00:48:37.269Z,20.33
2018-11-23T00:51:04.209Z,20.45
2018-11-23T00:53:31.097Z,20.45
2018-11-23T00:55:57.973Z,20.46
2018-11-23T00:58:24.912Z,20.48
2018-11-23T01:00:51.813Z,20.47
2018-11-23T01:03:19.821Z,20.48
2018-11-23T01:05:46.719Z,20.47
2018-11-23T01:08:13.623Z,20.49
2018-11-23T01:10:40.572Z,20.48
2018-11-23T01:13:07.455Z,20.48
2018-11-23T01:15:34.425Z,20.48
2018-11-23T01:18:04.329Z,20.48
2018-11-23T01:20:31.288Z,20.49
2018-11-23T01:22:58.757Z,20.49
2018-11-23T01:25:26.549Z,20.49
2018-11-23T01:27:54.484Z,20.49
2018-11-23T01:30:22.784Z,20.51
2018-11-23T01:32:49.697Z,20.50
2018-11-23T01:35:16.709Z,20.51
2018-11-23T01:37:43.613Z,20.52
2018-11-23T01:40:10.568Z,20.52
2018-11-23T01:42:37.479Z,20.52
2018-11-23T01:45:04.444Z,20.52
2018-11-23T01:47:31.345Z,20.52
2018-11-23T01:49:58.223Z,20.53
2018-11-23T01:52:25.187Z,20.51
2018-11-23T01:54:52.084Z,20.53
2018-11-23T01:57:18.997Z,20.53
2018-11-23T01:59:45.906Z,20.53
2018-11-23T02:02:12.862Z,20.54
2018-11-23T02:04:39.744Z,20.55
2018-11-23T02:07:06.813Z,20.55
2018-11-23T02:09:33.729Z,20.55
2018-11-23T02:12:00.617Z,20.56
2018-11-23T02:14:27.502Z,20.55
2018-11-23T02:16:54.519Z,20.56
2018-11-23T02:19:21.493Z,20.55
2018-11-23T02:21:48.380Z,20.55
2018-11-23T02:24:15.246Z,20.54
2018-11-23T02:26:42.121Z,20.56
2018-11-23T02:29:09.052Z,20.55
2018-11-23T02:31:37.408Z,20.56
2018-11-23T02:34:04.314Z,20.56
2018-11-23T02:36:31.182Z,20.56
2018-11-23T02:38:58.025Z,20.56
2018-11-23T02:41:24.884Z,20.57
2018-11-23T02:43:51.777Z,20.56
2018-11-23T02:46:18.786Z,20.58
2018-11-23T02:48:45.723Z,20.58
2018-11-23T02:51:12.565Z,20.59
2018-11-23T02:53:39.469Z,20.59
2018-11-23T02:56:06.309Z,20.60
2018-11-23T02:58:33.242Z,20.60
2018-11-23T03:01:00.182Z,20.62
2018-11-23T03:03:27.148Z,20.63
2018-11-23T03:05:54.058Z,20.61
2018-11-23T03:08:21.143Z,20.63
2018-11-23T03:10:48.087Z,20.64
2018-11-23T03:13:15.027Z,20.64
2018-11-23T03:15:41.931Z,20.65
2018-11-23T03:18:08.874Z,20.66
2018-11-23T03:20:35.798Z,20.67
2018-11-23T03:23:02.750Z,20.67
2018-11-23T03:25:29.649Z,20.67
2018-11-23T03:27:56.573Z,20.68
2018-11-23T03:30:24.122Z,20.68
2018-11-23T03:32:52.031Z,20.69
2018-11-23T03:35:19.438Z,20.70
2018-11-23T03:37:46.693Z,20.70
2018-11-23T03:40:13.601Z,20.70
2018-11-23T03:42:40.502Z,20.70
2018-11-23T03:45:07.430Z,20.71
2018-11-23T03:47:34.391Z,20.72
2018-11-23T03:50:01.359Z,20.72
2018-11-23T03:52:28.273Z,20.73
2018-11-23T03:54:55.185Z,20.72
2018-11-23T03:57:22.147Z,20.73
2018-11-23T03:59:49.068Z,20.73
2018-11-23T04:02:15.998Z,20.74
2018-11-23T04:04:42.936Z,20.73
2018-11-23T04:07:09.870Z,20.74
2018-11-23T04:09:36.764Z,20.74
2018-11-23T04:12:03.719Z,20.75
2018-11-23T04:14:30.743Z,20.74
2018-11-23T04:16:57.688Z,20.74
2018-11-23T04:19:24.888Z,20.75
2018-11-23T04:21:51.790Z,20.75
2018-11-23T04:24:18.746Z,20.76
2018-11-23T04:26:45.690Z,20.76
2018-11-23T04:29:12.647Z,20.76
2018-11-23T04:31:39.570Z,20.77
2018-11-23T04:34:06.508Z,20.76
2018-11-23T04:36:33.502Z,20.77
2018-11-23T04:39:00.467Z,20.60
2018-11-23T04:41:27.365Z,20.77
2018-11-23T04:43:54.281Z,20.77
2018-11-23T04:46:21.231Z,20.78
2018-11-23T04:48:48.203Z,20.77
2018-11-23T04:51:15.186Z,20.78
2018-11-23T04:53:42.105Z,20.78
2018-11-23T04:56:09.050Z,20.80
2018-11-23T04:58:36.015Z,20.79
2018-11-23T05:01:03.121Z,20.78
2018-11-23T05:03:30.106Z,20.80
2018-11-23T05:05:57.058Z,20.80
2018-11-23T05:08:24.027Z,20.80
2018-11-23T05:10:51.051Z,20.80
2018-11-23T05:13:18.373Z,20.81
2018-11-23T05:15:45.360Z,20.81
2018-11-23T05:18:12.287Z,20.81
2018-11-23T05:20:39.230Z,20.82
2018-11-23T05:23:06.264Z,20.81
2018-11-23T05:25:33.227Z,20.81
2018-11-23T05:28:00.213Z,20.81
2018-11-23T05:30:27.138Z,20.81
2018-11-23T05:32:54.193Z,20.80
2018-11-23T05:35:21.098Z,20.81
2018-11-23T05:37:48.032Z,20.80
2018-11-23T05:40:17.133Z,20.82
2018-11-23T05:42:44.105Z,20.81
2018-11-23T05:45:11.962Z,20.83
2018-11-23T05:47:38.883Z,20.82
2018-11-23T05:50:05.832Z,20.82
2018-11-23T05:52:32.750Z,20.81
2018-11-23T05:54:59.688Z,20.82
2018-11-23T05:57:28.654Z,20.82
2018-11-23T05:59:55.602Z,20.81
2018-11-23T06:02:22.667Z,20.82
2018-11-23T06:04:49.750Z,20.82
2018-11-23T06:07:16.681Z,20.82
2018-11-23T06:09:43.631Z,20.82
2018-11-23T06:12:10.648Z,20.81
2018-11-23T06:14:37.561Z,20.83
2018-11-23T06:17:05.060Z,20.83
2018-11-23T06:19:32.097Z,20.83
2018-11-23T06:21:59.158Z,20.83
2018-11-23T06:24:32.008Z,20.82
2018-11-23T06:26:53.059Z,20.82
2018-11-23T06:29:20.061Z,20.83
2018-11-23T06:31:46.967Z,20.84
2018-11-23T06:34:13.897Z,20.83
2018-11-23T06:36:40.906Z,20.83
2018-11-23T06:39:07.851Z,20.83
2018-11-23T06:41:34.763Z,20.83
2018-11-23T06:44:01.710Z,20.83
2018-11-23T06:46:28.675Z,20.83
2018-11-23T06:48:55.598Z,20.83
2018-11-23T06:51:22.549Z,20.83
2018-11-23T06:53:49.503Z,20.83
2018-11-23T06:56:16.493Z,20.83
2018-11-23T06:58:43.470Z,20.84
2018-11-23T07:01:10.416Z,20.84
2018-11-23T07:06:10.595Z,20.83
2018-11-23T07:08:37.539Z,20.83
2018-11-23T07:11:04.605Z,20.84
2018-11-23T07:13:31.806Z,20.83
2018-11-23T07:15:58.775Z,20.83
2018-11-23T07:18:25.697Z,20.84
2018-11-23T07:20:53.799Z,20.84
2018-11-23T07:23:19.605Z,20.84
2018-11-23T07:25:46.740Z,20.84
2018-11-23T07:28:15.675Z,20.84
2018-11-23T07:30:40.644Z,20.85
2018-11-23T07:33:07.611Z,20.84
2018-11-23T07:35:34.574Z,20.70
2018-11-23T07:38:01.495Z,20.84
2018-11-23T07:40:30.245Z,20.84
2018-11-23T07:42:58.715Z,20.85
2018-11-23T07:45:25.690Z,20.84
2018-11-23T07:47:52.633Z,20.85
2018-11-23T07:50:19.578Z,20.84
2018-11-23T07:52:46.521Z,20.84
2018-11-23T07:55:13.780Z,20.85
2018-11-23T07:57:40.958Z,20.84
2018-11-23T08:00:08.615Z,20.84
2018-11-23T08:02:35.567Z,20.85
2018-11-23T08:05:02.498Z,20.85
2018-11-23T08:07:29.422Z,20.84
2018-11-23T08:09:56.382Z,20.85
2018-11-23T08:12:23.320Z,20.85
2018-11-23T08:14:50.220Z,20.84
2018-11-23T08:17:17.214Z,20.85
2018-11-23T08:19:47.411Z,20.85
2018-11-23T08:22:11.410Z,20.84
2018-11-23T08:24:38.467Z,20.84
2018-11-23T08:27:05.461Z,20.85
2018-11-23T08:29:32.395Z,20.85
2018-11-23T08:32:01.352Z,20.85
2018-11-23T08:34:28.267Z,20.85
2018-11-23T08:36:55.221Z,20.86
2018-11-23T08:39:22.323Z,20.85
2018-11-23T08:41:49.326Z,20.85
2018-11-23T08:44:16.467Z,20.85
2018-11-23T08:46:43.393Z,20.85
2018-11-23T08:49:10.314Z,20.86
2018-11-23T08:51:37.239Z,20.85
2018-11-23T08:54:04.173Z,20.85
2018-11-23T08:56:31.110Z,20.85
2018-11-23T08:58:58.081Z,20.86
2018-11-23T09:01:25.324Z,20.86
2018-11-23T09:03:52.437Z,20.86
2018-11-23T09:06:19.476Z,20.85
2018-11-23T09:08:46.379Z,20.86
2018-11-23T09:11:13.318Z,20.85
2018-11-23T09:13:40.272Z,20.85
2018-11-23T09:16:07.586Z,20.84
2018-11-23T09:18:35.570Z,20.85
2018-11-23T09:21:02.482Z,20.86
2018-11-23T09:23:29.402Z,20.86
2018-11-23T09:25:56.312Z,20.86
2018-11-23T09:28:23.254Z,20.86
2018-11-23T09:30:50.209Z,20.85
2018-11-23T09:33:17.225Z,20.85
2018-11-23T09:35:45.173Z,20.86
2018-11-23T09:38:12.112Z,20.86
2018-11-23T09:40:39.079Z,20.84
2018-11-23T09:43:06.083Z,20.84
2018-11-23T09:45:33.618Z,19.36
2018-11-23T09:48:01.983Z,18.04
2018-11-23T09:50:29.214Z,17.62
2018-11-23T09:52:57.492Z,17.57
2018-11-23T09:55:25.059Z,16.80
2018-11-23T09:57:52.189Z,16.59
2018-11-23T10:00:20.484Z,16.48
2018-11-23T10:02:48.213Z,16.37
2018-11-23T10:05:15.829Z,16.16
2018-11-23T10:07:44.102Z,16.05
2018-11-23T10:10:11.935Z,15.83
2018-11-23T10:12:38.825Z,15.51
2018-11-23T10:15:05.731Z,15.47
2018-11-23T10:17:32.618Z,15.45
2018-11-23T10:19:59.519Z,15.48
2018-11-23T10:22:26.440Z,16.68
2018-11-23T10:24:53.358Z,17.30
2018-11-23T10:27:20.297Z,17.71
2018-11-23T10:29:47.214Z,17.98
2018-11-23T10:32:14.103Z,18.18
2018-11-23T10:34:40.999Z,18.33
2018-11-23T10:37:07.894Z,18.44
2018-11-23T10:39:34.793Z,18.54
2018-11-23T10:42:01.695Z,18.63
2018-11-23T10:44:28.608Z,18.69
2018-11-23T10:46:55.527Z,18.75
2018-11-23T10:49:22.430Z,18.78
2018-11-23T10:51:49.302Z,18.84
2018-11-23T10:54:16.195Z,18.88
2018-11-23T10:56:43.091Z,18.92
2018-11-23T10:59:09.974Z,18.97
2018-11-23T11:01:42.240Z,19.01
2018-11-23T11:04:14.330Z,19.05
2018-11-23T11:06:46.592Z,19.07
2018-11-23T11:09:13.495Z,19.11
2018-11-23T11:11:41.219Z,19.13
2018-11-23T11:14:08.481Z,19.15
2018-11-23T11:16:36.185Z,19.19
2018-11-23T11:19:03.078Z,19.22
2018-11-23T11:21:29.979Z,19.24
2018-11-23T11:23:56.874Z,19.26
2018-11-23T11:26:23.775Z,19.29
2018-11-23T11:28:50.703Z,19.30
2018-11-23T11:31:17.662Z,19.31
2018-11-23T11:33:44.579Z,19.34
2018-11-23T11:36:11.478Z,19.35
2018-11-23T11:38:38.383Z,19.37
2018-11-23T11:41:05.275Z,19.38
2018-11-23T11:43:32.171Z,19.39
2018-11-23T11:45:59.062Z,19.41
2018-11-23T11:48:25.965Z,19.42
2018-11-23T11:50:52.904Z,19.45
2018-11-23T11:53:19.820Z,19.46
2018-11-23T11:55:46.706Z,19.49
2018-11-23T11:58:13.599Z,19.56
2018-11-23T12:00:40.517Z,19.60
2018-11-23T12:03:07.419Z,19.60
2018-11-23T12:05:34.315Z,19.62
2018-11-23T12:08:01.218Z,19.62
2018-11-23T12:10:28.122Z,19.63
2018-11-23T12:12:55.045Z,19.65
2018-11-23T12:15:21.945Z,19.67
2018-11-23T12:17:48.825Z,19.68
2018-11-23T12:20:23.454Z,19.69
2018-11-23T12:22:50.715Z,19.70
2018-11-23T12:25:17.891Z,19.71
2018-11-23T12:27:44.797Z,19.72
2018-11-23T12:30:12.290Z,19.77
2018-11-23T12:32:39.315Z,19.82
2018-11-23T12:35:06.198Z,19.85
2018-11-23T12:37:33.491Z,19.86
2018-11-23T12:40:00.418Z,19.91
2018-11-23T12:42:27.311Z,19.91
2018-11-23T12:44:54.252Z,19.94
2018-11-23T12:47:21.159Z,20.02
2018-11-23T12:49:48.072Z,20.00
2018-11-23T12:52:14.957Z,20.04
2018-11-23T12:54:41.870Z,20.03
2018-11-23T12:57:08.753Z,20.00
2018-11-23T12:59:35.703Z,20.00
2018-11-23T13:02:02.606Z,19.98
2018-11-23T13:04:29.562Z,20.01
2018-11-23T13:06:56.482Z,20.00
2018-11-23T13:09:23.426Z,19.98
2018-11-23T13:11:50.392Z,19.98
2018-11-23T13:14:17.308Z,19.98
2018-11-23T13:16:44.274Z,19.97
2018-11-23T13:19:11.180Z,19.97
2018-11-23T13:21:38.066Z,19.98
2018-11-23T13:24:04.993Z,19.98
2018-11-23T13:26:32.132Z,19.99
2018-11-23T13:29:02.800Z,19.99
2018-11-23T13:31:26.065Z,19.98
2018-11-23T13:33:53.686Z,19.99
2018-11-23T13:36:20.588Z,20.01
2018-11-23T13:38:47.470Z,20.01
2018-11-23T13:41:14.363Z,20.01
2018-11-23T13:43:41.261Z,20.01
2018-11-23T13:46:08.154Z,20.01
2018-11-23T13:48:35.049Z,20.01
2018-11-23T13:51:01.939Z,20.03
2018-11-23T13:53:28.821Z,20.02
2018-11-23T13:55:55.746Z,20.02
2018-11-23T13:58:22.647Z,20.02
2018-11-23T14:00:49.546Z,20.02
2018-11-23T14:03:16.525Z,20.02
2018-11-23T14:05:43.422Z,20.03
2018-11-23T14:08:10.309Z,20.03
2018-11-23T14:10:37.220Z,20.03
2018-11-23T14:13:11.019Z,20.03
2018-11-23T14:15:31.635Z,20.03
2018-11-23T14:17:59.386Z,20.04
2018-11-23T14:20:26.979Z,20.04
2018-11-23T14:22:53.965Z,20.04
2018-11-23T14:25:22.207Z,20.03
2018-11-23T14:27:49.543Z,20.04
2018-11-23T14:30:17.623Z,20.04
2018-11-23T14:32:44.638Z,20.04
2018-11-23T14:35:12.971Z,20.04
2018-11-23T14:37:40.213Z,20.05
2018-11-23T14:40:07.433Z,20.04
2018-11-23T14:42:34.322Z,20.05
2018-11-23T14:45:01.214Z,20.04
2018-11-23T14:47:28.119Z,20.05
2018-11-23T14:49:55.025Z,20.06
2018-11-23T14:52:21.928Z,20.06
2018-11-23T14:54:48.835Z,20.07
2018-11-23T14:57:15.751Z,20.06
2018-11-23T14:59:42.656Z,20.07
2018-11-23T15:02:09.641Z,20.07
2018-11-23T15:04:36.538Z,20.07
2018-11-23T15:07:03.447Z,20.08
2018-11-23T15:09:30.334Z,20.07
2018-11-23T15:11:57.239Z,20.08
2018-11-23T15:14:24.126Z,20.08
2018-11-23T15:16:51.066Z,20.08
2018-11-23T15:19:18.066Z,20.08
2018-11-23T15:21:44.962Z,20.09
2018-11-23T15:24:11.854Z,20.08
2018-11-23T15:26:38.753Z,20.08
2018-11-23T15:29:05.638Z,20.09
2018-11-23T15:31:32.570Z,20.09
2018-11-23T15:33:59.471Z,20.08
2018-11-23T15:36:26.482Z,20.09
2018-11-23T15:38:53.389Z,20.09
2018-11-23T15:41:20.277Z,20.09
2018-11-23T15:43:47.188Z,20.10
2018-11-23T15:46:14.094Z,20.09
2018-11-23T15:48:40.991Z,20.11
2018-11-23T15:51:09.257Z,20.10
2018-11-23T15:53:36.155Z,20.10
2018-11-23T15:56:03.053Z,20.10
2018-11-23T15:58:29.952Z,20.10
2018-11-23T16:00:56.855Z,20.11
2018-11-23T16:03:23.759Z,20.11
2018-11-23T16:05:50.656Z,20.11
2018-11-23T16:08:17.563Z,20.11
2018-11-23T16:10:44.472Z,20.11
2018-11-23T16:13:11.984Z,20.11
2018-11-23T16:15:38.953Z,20.13
2018-11-23T16:18:05.884Z,20.12
2018-11-23T16:20:33.736Z,20.13
2018-11-23T16:23:08.566Z,20.12
2018-11-23T16:25:35.494Z,20.12
2018-11-23T16:28:03.667Z,20.12
2018-11-23T16:30:31.946Z,20.13
2018-11-23T16:33:00.123Z,20.13
2018-11-23T16:35:28.300Z,20.13
2018-11-23T16:37:56.154Z,20.13
2018-11-23T16:40:24.538Z,20.13
2018-11-23T16:42:51.802Z,20.15
2018-11-23T16:45:20.943Z,20.15
2018-11-23T16:47:48.355Z,20.15
2018-11-23T16:50:15.327Z,20.15
2018-11-23T16:52:43.267Z,20.15
2018-11-23T16:55:11.536Z,20.15
2018-11-23T16:57:38.697Z,20.15
2018-11-23T17:00:05.642Z,20.14
2018-11-23T17:02:32.558Z,20.15
2018-11-23T17:04:59.446Z,20.15
2018-11-23T17:07:26.342Z,20.15
2018-11-23T17:09:53.247Z,20.15
2018-11-23T17:12:20.137Z,20.16
2018-11-23T17:14:47.050Z,20.16
2018-11-23T17:17:13.934Z,20.17
2018-11-23T17:19:40.839Z,20.15
2018-11-23T17:22:07.823Z,20.17
2018-11-23T17:24:34.714Z,20.17
2018-11-23T17:27:01.620Z,20.16
2018-11-23T17:29:28.523Z,20.17
2018-11-23T17:31:55.447Z,20.17
2018-11-23T17:34:22.342Z,20.17
2018-11-23T17:36:49.236Z,20.17
2018-11-23T17:39:16.131Z,20.17
2018-11-23T17:41:43.017Z,20.17
2018-11-23T17:44:09.897Z,20.17
2018-11-23T17:46:36.794Z,20.17
2018-11-23T17:49:03.719Z,20.18
2018-11-23T17:51:30.606Z,20.18
2018-11-23T17:53:57.490Z,20.17
2018-11-23T17:56:24.396Z,20.17
2018-11-23T17:58:51.299Z,20.18
2018-11-23T18:01:18.190Z,20.18
2018-11-23T18:03:45.082Z,20.19
2018-11-23T18:06:11.998Z,20.18
2018-11-23T18:08:39.145Z,20.18
2018-11-23T18:11:05.851Z,20.19
2018-11-23T18:13:32.741Z,20.18
2018-11-23T18:15:59.665Z,20.19
2018-11-23T18:18:26.562Z,20.20
2018-11-23T18:20:53.451Z,20.19
2018-11-23T18:23:20.351Z,20.19
2018-11-23T18:25:47.239Z,20.19
2018-11-23T18:28:14.128Z,20.20
2018-11-23T18:30:41.035Z,20.19
2018-11-23T18:33:07.922Z,20.19
2018-11-23T18:35:34.812Z,20.19
2018-11-23T18:38:01.704Z,20.20
2018-11-23T18:40:32.265Z,20.20
2018-11-23T18:42:55.628Z,20.20
2018-11-23T18:45:22.559Z,20.20
2018-11-23T18:47:49.439Z,20.20
2018-11-23T18:50:16.347Z,20.20
2018-11-23T18:52:43.228Z,20.21
2018-11-23T18:55:13.617Z,20.22
2018-11-23T18:57:37.073Z,20.21
2018-11-23T19:00:03.965Z,20.20
2018-11-23T19:02:30.867Z,20.20
2018-11-23T19:04:57.793Z,20.21
2018-11-23T19:07:24.686Z,20.20
2018-11-23T19:09:51.595Z,20.21
2018-11-23T19:12:18.491Z,20.21
2018-11-23T19:14:45.483Z,20.20
2018-11-23T19:17:12.377Z,20.22
2018-11-23T19:19:39.270Z,20.21
2018-11-23T19:22:06.179Z,20.22
2018-11-23T19:24:33.074Z,20.21
2018-11-23T19:26:59.972Z,20.21
2018-11-23T19:29:26.871Z,20.23
2018-11-23T19:31:53.766Z,20.21
2018-11-23T19:34:20.655Z,20.22
2018-11-23T19:36:47.554Z,20.22
2018-11-23T19:39:14.446Z,20.22
2018-11-23T19:41:41.367Z,20.22
2018-11-23T19:44:08.897Z,20.22
2018-11-23T19:46:35.201Z,20.22
2018-11-23T19:49:02.099Z,20.22
2018-11-23T19:51:28.988Z,20.22
2018-11-23T19:53:55.892Z,20.23
2018-11-23T19:56:22.789Z,20.24
2018-11-23T19:58:49.705Z,20.22
2018-11-23T20:01:16.606Z,20.23
2018-11-23T20:03:43.546Z,20.23
2018-11-23T20:06:10.438Z,20.23
2018-11-23T20:08:37.335Z,20.23
2018-11-23T20:11:04.227Z,20.22
2018-11-23T20:13:31.134Z,20.23
2018-11-23T20:15:58.020Z,20.23
2018-11-23T20:18:24.908Z,20.23
2018-11-23T20:20:51.813Z,20.23
2018-11-23T20:23:18.804Z,20.23
2018-11-23T20:25:45.688Z,20.24
2018-11-23T20:28:12.584Z,20.24
2018-11-23T20:30:42.506Z,20.23
2018-11-23T20:33:06.417Z,20.24
2018-11-23T20:35:33.299Z,20.24
2018-11-23T20:38:00.197Z,20.24
2018-11-23T20:40:27.094Z,20.23
2018-11-23T20:42:54.850Z,20.24
2018-11-23T20:45:21.744Z,20.24
2018-11-23T20:47:48.643Z,20.23
2018-11-23T20:50:15.538Z,20.24
2018-11-23T20:52:42.425Z,20.24
2018-11-23T20:55:09.316Z,20.23
2018-11-23T20:57:36.219Z,20.24
2018-11-23T21:00:03.123Z,20.24
2018-11-23T21:02:30.110Z,20.25
2018-11-23T21:04:57.006Z,20.26
2018-11-23T21:07:23.899Z,20.24
2018-11-23T21:09:50.794Z,20.25
2018-11-23T21:12:17.778Z,20.24
2018-11-23T21:14:44.698Z,20.24
2018-11-23T21:17:11.598Z,20.24
2018-11-23T21:19:38.499Z,20.26
2018-11-23T21:22:05.413Z,20.25
2018-11-23T21:24:32.295Z,20.24
2018-11-23T21:26:59.195Z,20.25
2018-11-23T21:29:26.090Z,20.26
2018-11-23T21:31:52.978Z,20.25
2018-11-23T21:34:19.899Z,20.24
2018-11-23T21:36:46.806Z,20.25
2018-11-23T21:39:13.976Z,20.24
2018-11-23T21:41:40.635Z,20.25
2018-11-23T21:44:07.544Z,20.25
2018-11-23T21:46:34.452Z,20.25
2018-11-23T21:49:01.370Z,20.26
2018-11-23T21:51:28.252Z,20.25
2018-11-23T21:53:55.145Z,20.25
2018-11-23T21:56:22.048Z,20.25
2018-11-23T21:58:48.974Z,20.27
2018-11-23T22:01:15.861Z,20.25
2018-11-23T22:03:42.751Z,20.26
2018-11-23T22:06:09.655Z,20.26
2018-11-23T22:08:36.567Z,20.25
2018-11-23T22:11:03.454Z,20.27
2018-11-23T22:13:30.346Z,20.25
2018-11-23T22:15:57.241Z,20.25
2018-11-23T22:18:24.134Z,20.26
2018-11-23T22:20:51.042Z,20.25
2018-11-23T22:23:17.949Z,20.25
2018-11-23T22:25:44.870Z,20.27
2018-11-23T22:28:11.766Z,20.26
2018-11-23T22:30:38.678Z,20.27
2018-11-23T22:33:05.603Z,20.26
2018-11-23T22:35:32.507Z,20.27
2018-11-23T22:37:59.427Z,20.27
2018-11-23T22:40:26.324Z,20.27
2018-11-23T22:42:53.430Z,20.27
2018-11-23T22:45:20.339Z,20.26
2018-11-23T22:47:47.238Z,20.27
2018-11-23T22:50:14.135Z,20.28
2018-11-23T22:52:41.043Z,20.26
2018-11-23T22:55:07.939Z,20.27
2018-11-23T22:57:34.855Z,20.27
2018-11-23T23:00:01.761Z,20.28
2018-11-23T23:02:28.655Z,20.27
2018-11-23T23:04:55.553Z,20.28
2018-11-23T23:07:22.455Z,20.27
2018-11-23T23:09:49.361Z,20.28
2018-11-23T23:12:16.267Z,20.27
2018-11-23T23:14:43.186Z,20.27
2018-11-23T23:17:10.082Z,20.27
2018-11-23T23:19:36.989Z,20.28
2018-11-23T23:22:03.892Z,20.27
2018-11-23T23:24:30.803Z,20.27
2018-11-23T23:26:57.700Z,20.28
2018-11-23T23:29:24.634Z,20.27
2018-11-23T23:31:51.556Z,20.27
2018-11-23T23:34:18.449Z,20.27
2018-11-23T23:36:45.358Z,20.28
2018-11-23T23:39:12.267Z,20.27
2018-11-23T23:41:39.155Z,20.28
2018-11-23T23:44:06.056Z,20.27
2018-11-23T23:46:32.943Z,20.27
2018-11-23T23:48:59.824Z,20.27
2018-11-23T23:51:26.718Z,20.28
2018-11-23T23:53:53.624Z,20.27
2018-11-23T23:56:20.529Z,20.28
2018-11-23T23:58:47.418Z,20.27
